Nissho Maru No.18 — JL6369 — position and weather

sailwx.info

Track history (hours):
 
Tides and Currents Weather Stations Pressure Air Temp Water Temp Dewpoint Dewpoint Depression Visibility Wind Speed Wind Dir Waves Ship Positions

Nissho Maru No.18

Last reported at 2017-Jan-23 10:28 UTC. Time now 2017-Jan-23 10:38 UTC.
Position N 35°29' E 139°56'.

Length 65 m; draft 4 m.

Type: Tanker. MMSI: 431500465.

Date/timePositionNaut miles runAvg speedWind from/ knotsBaromVisibWave heightAir tempDewpointWater temp
2017-Jan-23 10:28N 35°29' E 139°56'0 0.0
2017-Jan-23 08:31N 35°29' E 139°56'0 0.0
2017-Jan-23 05:22N 35°29' E 139°56'0 0.0
2017-Jan-23 03:28N 35°29' E 139°56'0 0.0
2017-Jan-23 02:31N 35°29' E 139°56'0 0.0
2017-Jan-23 01:31N 35°29' E 139°56'0 0.0
2017-Jan-23 00:28N 35°29' E 139°56'0 0.1
2017-Jan-22 23:33N 35°29' E 139°56'1 0.5
2017-Jan-22 21:30N 35°28' E 139°55'0 0.0
2017-Jan-22 19:10N 35°28' E 139°55'6 9.5
2017-Jan-22 18:33N 35°26' E 139°49'10 9.8
2017-Jan-22 17:33N 35°16' E 139°46'245 9.6
2017-Jan-21 16:10N 34°10' E 134°59'912.0
2017-Jan-21 15:24N 34°19' E 134°59'1011.8
2017-Jan-21 14:33N 34°29' E 135°01'8 7.9
2017-Jan-21 13:32N 34°36' E 134°56'1 0.0
2017-Jan-20 15:33N 34°36' E 134°55'8 8.5
2017-Jan-20 14:33N 34°35' E 135°05'10 9.7
2017-Jan-20 13:33N 34°25' E 135°03'10 9.2
2017-Jan-20 12:30N 34°16' E 134°59'8 8.5
2017-Jan-20 11:32N 34°08' E 135°01'239 8.5
2017-Jan-19 07:30N 35°08' E 139°42'1010.5
2017-Jan-19 06:33N 35°17' E 139°44'9 9.4
2017-Jan-19 05:33N 35°27' E 139°47'1110.6
2017-Jan-19 04:31N 35°29' E 139°60'1 1.3
2017-Jan-19 03:33N 35°29' E 140°01'0 0.0
2017-Jan-19 02:23N 35°29' E 140°01'0 0.0
2017-Jan-19 01:33N 35°29' E 140°01'0 0.0
2017-Jan-19 00:07N 35°29' E 140°01'0 0.0
2017-Jan-18 23:33N 35°29' E 140°01'5 0.7
2017-Jan-18 16:22N 35°28' E 139°55'810.3
2017-Jan-18 15:33N 35°24' E 139°46'1010.3
2017-Jan-18 14:33N 35°14' E 139°47'241 9.2
2017-Jan-17 12:29N 34°24' E 134°60'1111.6
2017-Jan-17 11:33N 34°35' E 135°03'3 0.1
2017-Jan-16 09:23N 34°37' E 134°60'6 6.6
2017-Jan-16 08:32N 34°33' E 135°04'1010.2
2017-Jan-16 07:31N 34°23' E 135°02'9 8.9
2017-Jan-16 06:33N 34°15' E 134°60'1010.2
2017-Jan-16 05:33N 34°04' E 135°01'  
Track history (hours):
 
Tides and Currents Weather Stations Pressure Air Temp Water Temp Dewpoint Dewpoint Depression Visibility Wind Speed Wind Dir Waves Ship Positions

Nissho Maru No.18

Last reported at 2017-Jan-23 10:28 UTC. Time now 2017-Jan-23 10:38 UTC.
Position N 35°29' E 139°56'.

Length 65 m; draft 4 m.

Type: Tanker. MMSI: 431500465.

Date/timePositionNaut miles runAvg speedWind from/ knotsBaromVisibWave heightAir tempDewpointWater temp
2017-Jan-23 10:28N 35°29' E 139°56'0 0.0
2017-Jan-23 08:31N 35°29' E 139°56'0 0.0
2017-Jan-23 05:22N 35°29' E 139°56'0 0.0
2017-Jan-23 03:28N 35°29' E 139°56'0 0.0
2017-Jan-23 02:31N 35°29' E 139°56'0 0.0
2017-Jan-23 01:31N 35°29' E 139°56'0 0.0
2017-Jan-23 00:28N 35°29' E 139°56'0 0.1
2017-Jan-22 23:33N 35°29' E 139°56'1 0.5
2017-Jan-22 21:30N 35°28' E 139°55'0 0.0
2017-Jan-22 19:10N 35°28' E 139°55'6 9.5
2017-Jan-22 18:33N 35°26' E 139°49'10 9.8
2017-Jan-22 17:33N 35°16' E 139°46'245 9.6
2017-Jan-21 16:10N 34°10' E 134°59'912.0
2017-Jan-21 15:24N 34°19' E 134°59'1011.8
2017-Jan-21 14:33N 34°29' E 135°01'8 7.9
2017-Jan-21 13:32N 34°36' E 134°56'1 0.0
2017-Jan-20 15:33N 34°36' E 134°55'8 8.5
2017-Jan-20 14:33N 34°35' E 135°05'10 9.7
2017-Jan-20 13:33N 34°25' E 135°03'10 9.2
2017-Jan-20 12:30N 34°16' E 134°59'8 8.5
2017-Jan-20 11:32N 34°08' E 135°01'239 8.5
2017-Jan-19 07:30N 35°08' E 139°42'1010.5
2017-Jan-19 06:33N 35°17' E 139°44'9 9.4
2017-Jan-19 05:33N 35°27' E 139°47'1110.6
2017-Jan-19 04:31N 35°29' E 139°60'1 1.3
2017-Jan-19 03:33N 35°29' E 140°01'0 0.0
2017-Jan-19 02:23N 35°29' E 140°01'0 0.0
2017-Jan-19 01:33N 35°29' E 140°01'0 0.0
2017-Jan-19 00:07N 35°29' E 140°01'0 0.0
2017-Jan-18 23:33N 35°29' E 140°01'5 0.7
2017-Jan-18 16:22N 35°28' E 139°55'810.3
2017-Jan-18 15:33N 35°24' E 139°46'1010.3
2017-Jan-18 14:33N 35°14' E 139°47'241 9.2
2017-Jan-17 12:29N 34°24' E 134°60'1111.6
2017-Jan-17 11:33N 34°35' E 135°03'3 0.1
2017-Jan-16 09:23N 34°37' E 134°60'6 6.6
2017-Jan-16 08:32N 34°33' E 135°04'1010.2
2017-Jan-16 07:31N 34°23' E 135°02'9 8.9
2017-Jan-16 06:33N 34°15' E 134°60'1010.2
2017-Jan-16 05:33N 34°04' E 135°01'  

Dump ship's entire track history